KLIT

Bill and Hillary Clinton National / Adams Field Airport

Little Rock, Arkansas, USA
KLIT 200520Z 2006/2106 33012G22KT P6SM OVC025 FM200800 33008G16KT P6SM SCT025 OVC050 FM201000 33012KT P6SM SKC FM201700 34005KT P6SM SKC
Issued Valid From Valid To
Jan-20 @ 05:20 UTC
(6 hours ago)
Jan-20 @ 06:00 UTC
(5 hours ago)
Jan-21 @ 06:00 UTC
(in 19 hours)
Expired Click to View Jan-20 @ 06:00 to Jan-20 @ 08:00
KLIT 200520Z 2006/2106 33012G22KT P6SM OVC025
Wind Visibility Clouds
330° at 12 knots
 Gusting to 22 knots
Greater than 6 miles
  • Overcast at 2,500' AGL
Expired Click to View Jan-20 @ 08:00 to Jan-20 @ 10:00
FM200800 33008G16KT P6SM SCT025 OVC050
Wind Visibility Clouds
330° at 8 knots
 Gusting to 16 knots
Greater than 6 miles
  • Scattered at 2,500' AGL
  • Overcast at 5,000' AGL
From Jan-20 @ 10:00 to Jan-20 @ 17:00
FM201000 33012KT P6SM SKC
Wind Visibility Clouds
330° at 12 knots Greater than 6 miles
  • Clear skies
From Jan-20 @ 17:00 to Jan-21 @ 06:00
FM201700 34005KT P6SM SKC
Wind Visibility Clouds
340° at 5 knots Greater than 6 miles
  • Clear skies
KLIT 200520Z 2006/2106 33012G22KT P6SM OVC025 FM200800 33008G16KT P6SM SCT025 OVC050 FM201000 33012KT P6SM SKC FM201700 34005KT P6SM SKC
Issued Jan-20 @ 05:20 UTC
(6 hours ago)
Valid From Jan-20 @ 06:00 UTC
(5 hours ago)
Valid To Jan-21 @ 06:00 UTC
(in 19 hours)
Jan-20 @ 06:00 - Jan-20 @ 08:00
Wind Visibility
330° at 12 knots
 Gusting to 22 knots
Greater than 6 miles
Clouds
  • Overcast at 2,500' AGL
Jan-20 @ 08:00 - Jan-20 @ 10:00
Wind Visibility
330° at 8 knots
 Gusting to 16 knots
Greater than 6 miles
Clouds
  • Scattered at 2,500' AGL
  • Overcast at 5,000' AGL
From Jan-20 @ 10:00 - Jan-20 @ 17:00
Wind Visibility
330° at 12 knots Greater than 6 miles
Clouds
  • Clear skies
From Jan-20 @ 17:00 - Jan-21 @ 06:00
Wind Visibility
340° at 5 knots Greater than 6 miles
Clouds
  • Clear skies